Flight Track Log - Related Links

Times and Time Zones

All times are in EDT time to prevent confusion due to time zone crossing. See the N498QS flight status page for this flight to view local times or setup timezone preferences in your user account.

Time Position Orientation Groundspeed Altitude Reporting Facility
EDT Latitude Longitude Course Direction KTS MPH feet Rate Location/Type
Sun 02:59:03 PM 42.9333 -78.7167 179° South 156 180 1,700  Level Buffalo TRACON
Sun 03:01:21 PM 42.8119 -78.7125 179° South 265 305 8,700 3,273 Climbing Cleveland Center
Sun 03:02:21 PM 42.7542 -78.7539 208° Southwest 257 296 12,500 3,150 Climbing Cleveland Center
Sun 03:03:21 PM 42.6861 -78.7981 206° Southwest 257 296 15,000 3,100 Climbing Cleveland Center
Sun 03:05:21 PM 42.5189 -78.9069 206° Southwest 318 366 21,800 3,033 Climbing Cleveland Center
Sun 03:06:21 PM 42.4425 -78.9569 206° Southwest 331 381 24,100 1,600 Climbing Cleveland Center
Sun 03:07:21 PM 42.3494 -79.0183 206° Southwest 354 407 25,000 1,150 Climbing Cleveland Center
Sun 03:08:21 PM 42.2567 -79.0767 205° Southwest 370 426 26,400 1,700 Climbing Cleveland Center
Sun 03:09:21 PM 42.1528 -79.1211 198° South 381 438 28,400 1,800 Climbing Cleveland Center
Sun 03:10:21 PM 42.0447 -79.1489 191° South 391 450 30,000 1,750 Climbing Cleveland Center
Sun 03:11:21 PM 41.9411 -79.1986 200° South 396 456 31,900 2,050 Climbing Cleveland Center
Sun 03:12:21 PM 41.8547 -79.2786 215° Southwest 385 443 34,100 2,200 Climbing Cleveland Center
Sun 03:13:21 PM 41.7658 -79.3611 215° Southwest 385 443 36,300 1,750 Climbing Cleveland Center
Sun 03:14:21 PM 41.6792 -79.4433 215° Southwest 385 443 37,600 850 Climbing Cleveland Center
Sun 03:15:21 PM 41.5861 -79.5283 214° Southwest 398 458 38,000 200 Climbing Cleveland Center
Sun 03:16:21 PM 41.4953 -79.6128 215° Southwest 398 458 38,000 900 Level Cleveland Center
Sun 03:17:21 PM 41.3917 -79.7058 214° Southwest 403 464 39,800 1,600 Climbing Cleveland Center
Sun 03:18:21 PM 41.2922 -79.7706 206° Southwest 403 464 41,200 1,250 Climbing Cleveland Center
Sun 03:19:21 PM 41.1797 -79.7914 188° South 403 464 42,300 850 Climbing Cleveland Center
Sun 03:20:21 PM 41.0756 -79.8036 185° South 408 470 42,900 233 Climbing Cleveland Center
Sun 03:22:21 PM 40.8319 -79.8394 186° South 439 505 43,000 33 Climbing Cleveland Center
Sun 03:23:21 PM 40.7047 -79.8547 185° South 458 527 43,000  Level Cleveland Center
Sun 03:24:21 PM 40.5758 -79.8750 187° South 463 533 43,000  Level Cleveland Center
Sun 03:25:21 PM 40.4508 -79.8900 185° South 463 533 43,000  Level Cleveland Center
Sun 03:26:21 PM 40.3111 -79.9106 186° South 463 533 43,000  Level Cleveland Center
Sun 03:27:21 PM 40.1861 -79.9281 186° South 463 533 43,000  Level Cleveland Center
Sun 03:28:21 PM 40.0653 -79.9456 186° South 458 527 43,000  Level Cleveland Center
Sun 03:29:21 PM 39.9383 -79.9631 186° South 458 527 43,000  Level Cleveland Center
Sun 03:30:21 PM 39.8175 -79.9803 186° South 458 527 43,000  Level Cleveland Center
Sun 03:31:21 PM 39.6906 -79.9978 186° South 458 527 43,000  Level Cleveland Center
Sun 03:32:21 PM 39.5633 -80.0150 186° South 458 527 43,000  Level Cleveland Center
Sun 03:33:00 PM 39.4883 -80.0261 187° South 458 527 43,000  Level Washington Center
Sun 03:34:00 PM 39.3625 -80.0450 187° South 439 505 43,000  Level Washington Center
Sun 03:35:01 PM 39.2389 -80.0617 186° South 444 511 43,000  Level Washington Center
Sun 03:36:00 PM 39.1133 -80.0753 185° South 450 518 43,000  Level Washington Center
Sun 03:37:01 PM 38.9981 -80.0950 188° South 450 518 43,000  Level Washington Center
Sun 03:38:01 PM 38.8617 -80.1133 186° South 461 531 43,000  Level Washington Center
Sun 03:39:02 PM 38.7411 -80.1564 196° South 461 531 43,000  Level Washington Center
Sun 03:40:02 PM 38.6167 -80.1967 194° South 461 531 43,000 305 Level Washington Center
Sun 03:41:00 PM 38.4983 -80.2397 196° South 461 531 43,600 712 Climbing Washington Center
Sun 03:42:00 PM 38.3903 -80.2833 198° South 456 525 44,400 639 Climbing Washington Center
Sun 03:43:02 PM 38.2736 -80.3314 198° South 450 518 44,900 300 Climbing Washington Center
Sun 03:44:00 PM 38.1547 -80.3847 199° South 450 518 45,000 50 Climbing Washington Center
Sun 03:45:01 PM 38.0231 -80.4394 198° South 455 524 45,000  Level Washington Center
Sun 03:46:02 PM 37.9042 -80.4897 198° South 455 524 45,000  Level Washington Center
Sun 03:47:02 PM 37.7856 -80.5372 198° South 455 524 45,000  Level Washington Center
Sun 03:49:19 PM 37.5189 -80.6508 199° South 440 506 45,000  Level Atlanta Center
Sun 03:50:19 PM 37.4036 -80.6950 197° South 440 506 45,000  Level Atlanta Center
Sun 03:51:18 PM 37.3025 -80.7383 199° South 440 506 45,000  Level Atlanta Center
Sun 03:52:18 PM 37.1850 -80.7850 198° South 435 501 45,000  Level Atlanta Center
Sun 03:53:19 PM 37.0717 -80.8339 199° South 435 501 45,000  Level Atlanta Center
Sun 03:54:18 PM 36.9561 -80.8803 198° South 435 501 45,000  Level Atlanta Center
Sun 03:55:18 PM 36.8281 -80.9319 198° South 440 506 45,000  Level Atlanta Center
Sun 03:56:19 PM 36.7289 -80.9694 197° South 427 491 45,000  Level Atlanta Center
Sun 03:57:19 PM 36.6111 -81.0156 197° South 437 503 45,000  Level Atlanta Center
Sun 03:58:19 PM 36.4958 -81.0664 200° South 437 503 45,000  Level Atlanta Center
Sun 03:59:18 PM 36.3678 -81.1200 199° South 444 511 45,000  Level Atlanta Center
Sun 04:00:18 PM 36.2500 -81.1681 198° South 439 505 45,000  Level Atlanta Center
Sun 04:01:19 PM 36.1322 -81.2133 197° South 439 505 45,000  Level Atlanta Center
Sun 04:02:19 PM 36.0144 -81.2611 198° South 439 505 45,000  Level Atlanta Center
Sun 04:03:19 PM 35.8914 -81.2731 184° South 439 505 45,000  Level Atlanta Center
Sun 04:04:19 PM 35.7664 -81.2797 182° South 444 511 45,000  Level Atlanta Center
Sun 04:05:19 PM 35.6561 -81.2861 183° South 444 511 45,000  Level Atlanta Center
Sun 04:06:19 PM 35.5331 -81.2878 181° South 444 511 45,000  Level Atlanta Center
Sun 04:07:19 PM 35.3936 -81.2975 183° South 453 521 45,000  Level Atlanta Center
Sun 04:08:19 PM 35.2706 -81.3042 183° South 453 521 45,000  Level Atlanta Center
Sun 04:12:16 PM 34.7947 -81.3253 182° South 439 505 45,000  Level Jacksonville Center
Sun 04:13:16 PM 34.6697 -81.3325 183° South 451 519 45,000  Level Jacksonville Center
Sun 04:14:16 PM 34.5422 -81.3247 177° South 456 525 45,000  Level Jacksonville Center
Sun 04:15:16 PM 34.4169 -81.3169 177° South 456 525 45,000  Level Jacksonville Center
Sun 04:16:16 PM 34.3022 -81.3164 180° South 461 531 45,000  Level Jacksonville Center
Sun 04:17:16 PM 34.1583 -81.3067 177° South 454 522 45,000  Level Jacksonville Center
Sun 04:18:16 PM 34.0289 -81.3014 178° South 454 522 45,000  Level Jacksonville Center
Sun 04:19:16 PM 33.9014 -81.2936 177° South 460 529 45,000  Level Jacksonville Center
Sun 04:20:16 PM 33.7742 -81.2886 178° South 460 529 45,000  Level Jacksonville Center
Sun 04:21:16 PM 33.6447 -81.2858 179° South 460 529 45,000  Level Jacksonville Center
Sun 04:22:16 PM 33.5153 -81.2808 178° South 460 529 45,000  Level Jacksonville Center
Sun 04:23:18 PM 33.3878 -81.2756 178° South 465 535 45,000  Level Jacksonville Center
Sun 04:24:28 PM 33.2333 -81.2686 178° South 465 535 45,000  Level Jacksonville Center
Sun 04:25:28 PM 33.1058 -81.2658 179° South 459 528 45,000  Level Jacksonville Center
Sun 04:26:28 PM 32.9889 -81.2606 178° South 470 541 45,000  Level Jacksonville Center
Sun 04:27:28 PM 32.8617 -81.2556 178° South 470 541 45,000  Level Jacksonville Center
Sun 04:28:28 PM 32.7300 -81.2478 177° South 470 541 45,000  Level Jacksonville Center
Sun 04:29:28 PM 32.5900 -81.2456 179° South 461 531 45,000  Level Jacksonville Center
Sun 04:30:28 PM 32.4753 -81.2428 179° South 461 531 45,000  Level Jacksonville Center
Sun 04:31:28 PM 32.3394 -81.2328 176° South 474 545 45,000  Level Jacksonville Center
Sun 04:32:28 PM 32.2100 -81.2303 179° South 474 545 45,000  Level Jacksonville Center
Sun 04:33:28 PM 32.0803 -81.2203 176° South 474 545 45,000  Level Jacksonville Center
Sun 04:34:28 PM 31.9464 -81.1983 172° South 479 551 45,000  Level Jacksonville Center
Sun 04:35:28 PM 31.8167 -81.1764 172° South 484 557 45,000  Level Jacksonville Center
Sun 04:36:28 PM 31.6703 -81.1522 172° South 484 557 45,000  Level Jacksonville Center
Sun 04:37:28 PM 31.5508 -81.1325 172° South 484 557 45,000  Level Jacksonville Center
Sun 04:38:28 PM 31.4044 -81.1108 173° South 484 557 45,000  Level Jacksonville Center
Sun 04:39:28 PM 31.2853 -81.0889 171° South 484 557 45,000  Level Jacksonville Center
Sun 04:40:28 PM 31.1514 -81.0694 173° South 484 557 45,000  Level Jacksonville Center
Sun 04:41:29 PM 31.0194 -81.0478 172° South 484 557 45,000  Level Jacksonville Center
Sun 04:42:28 PM 30.8875 -81.0261 172° South 484 557 45,000  Level Jacksonville Center
Sun 04:43:28 PM 30.7558 -81.0047 172° South 484 557 45,000  Level Jacksonville Center
Sun 04:44:28 PM 30.6258 -80.9831 172° South 484 557 45,000  Level Jacksonville Center
Sun 04:45:28 PM 30.4919 -80.9617 172° South 484 557 45,000  Level Jacksonville Center
Sun 04:46:28 PM 30.3600 -80.9403 172° South 484 557 45,000  Level Jacksonville Center
Sun 04:47:28 PM 30.2283 -80.9189 172° South 484 557 45,000  Level Jacksonville Center
Sun 04:48:28 PM 30.0964 -80.8975 172° South 484 557 45,000 -798 Level Jacksonville Center
Sun 04:50:51 PM 29.7764 -80.8450 172° South 476 548 42,300 -1,186 Descending Miami Center
Sun 04:52:00 PM 29.6440 -80.8234 172° South  Level FlightAware Approximate
Sun 04:52:51 PM 29.5314 -80.8075 172° South 455 524 39,800  Level Miami Center
Sun 04:53:51 PM 29.3942 -80.7928 175° South 474 545 38,600 -1,200 Descending Miami Center
Sun 04:54:51 PM 29.2550 -80.7714 172° South 488 562 37,400 -1,200 Descending Miami Center
Sun 04:55:51 PM 29.1267 -80.7333 165° South 494 568 36,200 -700 Descending Miami Center
Sun 04:56:51 PM 29.0053 -80.6747 157° South 485 558 36,000 -100 Descending Miami Center
Sun 04:57:51 PM 28.8836 -80.6183 158° South 479 551 36,000 -800 Level Miami Center
Sun 04:58:51 PM 28.7703 -80.5669 158° South 479 551 34,400 -1,950 Descending Miami Center
Sun 04:59:51 PM 28.6444 -80.5108 159° South 487 560 32,100 -2,450 Descending Miami Center
Sun 05:00:51 PM 28.5083 -80.4497 158° South 487 560 29,500 -2,300 Descending Miami Center
Sun 05:01:51 PM 28.3864 -80.3939 158° South 481 554 27,500 -2,000 Descending Miami Center
Sun 05:02:51 PM 28.2689 -80.3431 159° South 463 533 25,500 -2,000 Descending Miami Center
Sun 05:03:51 PM 28.1678 -80.2928 156° South 446 513 23,500 -2,000 Descending Miami Center
Sun 05:04:51 PM 28.0692 -80.2264 149° Southeast 425 489 21,500 -2,000 Descending Miami Center
Sun 05:05:51 PM 27.9511 -80.1900 165° South 405 466 19,500 -1,850 Descending Miami Center
Sun 05:06:51 PM 27.8428 -80.1797 175° South 398 458 17,800 -1,600 Descending Miami Center
Sun 05:07:51 PM 27.7469 -80.1722 176° South 386 444 16,300 -1,450 Descending Miami Center
Sun 05:08:51 PM 27.6489 -80.1647 176° South 368 423 14,900 -1,550 Descending Miami Center
Sun 05:09:51 PM 27.5406 -80.1544 175° South 362 417 13,200 -1,550 Descending Miami Center
Sun 05:10:51 PM 27.4467 -80.1494 177° South 351 404 11,800 -1,350 Descending Miami Center
Sun 05:11:51 PM 27.3614 -80.1400 174° South 326 375 10,500 -900 Descending Miami Center
Sun 05:12:51 PM 27.2842 -80.1356 177° South 307 353 10,000 -550 Descending Miami Center
Sun 05:13:51 PM 27.1925 -80.1283 176° South 318 366 9,400 -1,050 Descending Miami Center
Sun 05:14:51 PM 27.1050 -80.1211 176° South 300 345 7,900 -1,550 Descending Miami Center
Sun 05:15:51 PM 27.0300 -80.1144 175° South 281 323 6,300 -950 Descending Miami Center
Sun 05:16:51 PM 26.9547 -80.1100 177° South 271 312 6,000 -150 Descending Miami Center
Sun 05:17:51 PM 26.8881 -80.1033 175° South 271 312 6,000  Level Miami Center
Sun 05:18:51 PM 26.8069 -80.0964 176° South 271 312 6,000  Level Miami Center
Sun 05:19:51 PM 26.7381 -80.0922 177° South 276 318 6,000 -552 Level Miami Center
Sun 05:21:00 PM 26.6081 -80.1167 180° South  Level FlightAware Approximate
Sun 05:23:12 PM 26.5150 -80.1606 180° South 243 280 3,600  Level Miami Center
Sun 05:24:01 PM 26.4706 -80.1939 214° Southwest 237 273 2,700 -818 Descending Miami Center
Sun 05:25:02 PM 26.4117 -80.2133 196° South 215 247 2,100 -537 Descending Miami Center
Sun 05:26:04 PM 26.3642 -80.1842 151° Southeast 176 203 1,600 -634 Descending Miami Center
Sun 05:27:05 PM 26.3503 -80.1489 114° Southeast 127 146 800 -787 Descending Miami Center
Sun 05:28:00 PM 26.3785 -80.1077 180° South  Level Estimated
Sun 05:29:00 PM 26.3667 -80.1000 180° South  Level FlightAware Approximate
Sun 05:36:00 PM 26.3785 -80.1077 180° South  Level Estimated

Login

Don't have an account? Register now (free) for customized features, flight alerts, and more!